Map

Track Data

SID SEASON NUMBER BASIN SUBBASIN NAME ISO_TIME NATURE LAT LON WMO_WIND WMO_PRES WMO_AGENCY TRACK_TYPE DIST2LAND LANDFALL IFLAG USA_AGENCY USA_ATCF_ID USA_LAT USA_LON USA_RECORD USA_STATUS USA_WIND USA_PRES USA_SSHS USA_R34_NE USA_R34_SE USA_R34_SW USA_R34_NW USA_R50_NE USA_R50_SE USA_R50_SW USA_R50_NW USA_R64_NE USA_R64_SE USA_R64_SW USA_R64_NW USA_POCI USA_ROCI USA_RMW USA_EYE TOKYO_LAT TOKYO_LON TOKYO_GRADE TOKYO_WIND TOKYO_PRES TOKYO_R50_DIR TOKYO_R50_LONG TOKYO_R50_SHORT TOKYO_R30_DIR TOKYO_R30_LONG TOKYO_R30_SHORT TOKYO_LAND CMA_LAT CMA_LON CMA_CAT CMA_WIND CMA_PRES HKO_LAT HKO_LON HKO_CAT HKO_WIND HKO_PRES NEWDELHI_LAT NEWDELHI_LON NEWDELHI_GRADE NEWDELHI_WIND NEWDELHI_PRES NEWDELHI_CI NEWDELHI_DP NEWDELHI_POCI REUNION_LAT REUNION_LON REUNION_TYPE REUNION_WIND REUNION_PRES REUNION_TNUM REUNION_CI REUNION_RMW REUNION_R34_NE REUNION_R34_SE REUNION_R34_SW REUNION_R34_NW REUNION_R50_NE REUNION_R50_SE REUNION_R50_SW REUNION_R50_NW REUNION_R64_NE REUNION_R64_SE REUNION_R64_SW REUNION_R64_NW BOM_LAT BOM_LON BOM_TYPE BOM_WIND BOM_PRES BOM_TNUM BOM_CI BOM_RMW BOM_R34_NE BOM_R34_SE BOM_R34_SW BOM_R34_NW BOM_R50_NE BOM_R50_SE BOM_R50_SW BOM_R50_NW BOM_R64_NE BOM_R64_SE BOM_R64_SW BOM_R64_NW BOM_ROCI BOM_POCI BOM_EYE BOM_POS_METHOD BOM_PRES_METHOD NADI_LAT NADI_LON NADI_CAT NADI_WIND NADI_PRES WELLINGTON_LAT WELLINGTON_LON WELLINGTON_WIND WELLINGTON_PRES DS824_LAT DS824_LON DS824_STAGE DS824_WIND DS824_PRES TD9636_LAT TD9636_LON TD9636_STAGE TD9636_WIND TD9636_PRES TD9635_LAT TD9635_LON TD9635_WIND TD9635_PRES TD9635_ROCI NEUMANN_LAT NEUMANN_LON NEUMANN_CLASS NEUMANN_WIND NEUMANN_PRES MLC_LAT MLC_LON MLC_CLASS MLC_WIND MLC_PRES USA_GUST BOM_GUST BOM_GUST_PER REUNION_GUST REUNION_GUST_PER USA_SEAHGT USA_SEARAD_NE USA_SEARAD_SE USA_SEARAD_SW USA_SEARAD_NW STORM_SPEED STORM_DIR
1904272N12280 1904 37 NA CS NOT_NAMED 1904-09-28 00:00:00 TS 12.0000 -80.0000 25 hurdat_atl main 281 281 O_____________ hurdat_atl AL031904 12.0000 -80.0000 TD 25 -1 4 300
1904272N12280 1904 37 NA CS NOT_NAMED 1904-09-28 03:00:00 TS 12.0900 -80.1625 main 296 296 P_____________ AL031904 12.0900 -80.1625 TD 25 -1 4 304
1904272N12280 1904 37 NA CS NOT_NAMED 1904-09-28 06:00:00 TS 12.2000 -80.3000 25 hurdat_atl main 309 309 O_____________ hurdat_atl AL031904 12.2000 -80.3000 TD 25 -1 3 317
1904272N12280 1904 37 NA CS NOT_NAMED 1904-09-28 09:00:00 TS 12.3425 -80.4000 main 322 322 P_____________ AL031904 12.3425 -80.4000 TD 27 -1 4 327
1904272N12280 1904 37 NA CS NOT_NAMED 1904-09-28 12:00:00 TS 12.5000 -80.5000 30 hurdat_atl main 325 314 O_____________ hurdat_atl AL031904 12.5000 -80.5000 TD 30 -1 4 322
1904272N12280 1904 37 NA CS NOT_NAMED 1904-09-28 15:00:00 TS 12.6575 -80.6500 main 314 292 P_____________ AL031904 12.6575 -80.6500 TD 30 -1 4 316
1904272N12280 1904 37 NA CS NOT_NAMED 1904-09-28 18:00:00 TS 12.8000 -80.8000 30 hurdat_atl main 292 281 O_____________ hurdat_atl AL031904 12.8000 -80.8000 TD 30 -1 4 315
1904272N12280 1904 37 NA CS NOT_NAMED 1904-09-28 21:00:00 TS 12.9075 -80.9075 main 281 271 P_____________ AL031904 12.9075 -80.9075 TD 32 -1 3 316
1904272N12280 1904 37 NA CS NOT_NAMED 1904-09-29 00:00:00 TS 13.0000 -81.0000 35 hurdat_atl main 271 260 O_____________ hurdat_atl AL031904 13.0000 -81.0000 TS 35 0 3 315
1904272N12280 1904 37 NA CS NOT_NAMED 1904-09-29 03:00:00 TS 13.0925 -81.0925 main 260 248 P_____________ AL031904 13.0925 -81.0925 TS 35 0 3 316
1904272N12280 1904 37 NA CS NOT_NAMED 1904-09-29 06:00:00 TS 13.2000 -81.2000 35 hurdat_atl main 248 233 O_____________ hurdat_atl AL031904 13.2000 -81.2000 TS 35 0 3 315
1904272N12280 1904 37 NA CS NOT_NAMED 1904-09-29 09:00:00 TS 13.3350 -81.3425 main 233 204 P_____________ AL031904 13.3350 -81.3425 TS 37 0 4 316
1904272N12280 1904 37 NA CS NOT_NAMED 1904-09-29 12:00:00 TS 13.5000 -81.5000 40 hurdat_atl main 204 185 O_____________ hurdat_atl AL031904 13.5000 -81.5000 TS 40 0 5 319
1904272N12280 1904 37 NA CS NOT_NAMED 1904-09-29 15:00:00 TS 13.6850 -81.6575 main 175 157 P_____________ AL031904 13.6850 -81.6575 TS 40 0 5 324
1904272N12280 1904 37 NA CS NOT_NAMED 1904-09-29 18:00:00 TS 13.9000 -81.8000 40 hurdat_atl main 157 141 O_____________ hurdat_atl AL031904 13.9000 -81.8000 TS 40 0 5 332
1904272N12280 1904 37 NA CS NOT_NAMED 1904-09-29 21:00:00 TS 14.1350 -81.9075 main 141 129 P_____________ AL031904 14.1350 -81.9075 TS 42 0 5 339
1904272N12280 1904 37 NA CS NOT_NAMED 1904-09-30 00:00:00 TS 14.4000 -82.0000 45 hurdat_atl main 129 112 O_____________ hurdat_atl AL031904 14.4000 -82.0000 TS 45 0 6 342
1904272N12280 1904 37 NA CS NOT_NAMED 1904-09-30 03:00:00 TS 14.7000 -82.0925 main 112 96 P_____________ AL031904 14.7000 -82.0925 TS 47 0 6 342
1904272N12280 1904 37 NA CS NOT_NAMED 1904-09-30 06:00:00 TS 15.0000 -82.2000 50 hurdat_atl main 96 86 O_____________ hurdat_atl AL031904 15.0000 -82.2000 TS 50 0 6 337
1904272N12280 1904 37 NA CS NOT_NAMED 1904-09-30 09:00:00 TS 15.2650 -82.3425 main 92 78 P_____________ AL031904 15.2650 -82.3425 TS 52 0 6 330
1904272N12280 1904 37 NA CS NOT_NAMED 1904-09-30 12:00:00 TS 15.5000 -82.5000 55 hurdat_atl main 85 85 O_____________ hurdat_atl AL031904 15.5000 -82.5000 TS 55 0 5 326
1904272N12280 1904 37 NA CS NOT_NAMED 1904-09-30 15:00:00 TS 15.7075 -82.6500 main 87 85 P_____________ AL031904 15.7075 -82.6500 TS 57 0 5 324
1904272N12280 1904 37 NA CS NOT_NAMED 1904-09-30 18:00:00 TS 15.9000 -82.8000 60 hurdat_atl main 92 92 O_____________ hurdat_atl AL031904 15.9000 -82.8000 TS 60 0 5 324
1904272N12280 1904 37 NA CS NOT_NAMED 1904-09-30 21:00:00 TS 16.1000 -82.9426 main 104 99 P_____________ AL031904 16.1000 -82.9426 TS 62 0 5 324
1904272N12280 1904 37 NA CS NOT_NAMED 1904-10-01 00:00:00 TS 16.3000 -83.1000 65 hurdat_atl main 116 116 O_____________ hurdat_atl AL031904 16.3000 -83.1000 HU 65 1 5 321
1904272N12280 1904 37 NA CS NOT_NAMED 1904-10-01 03:00:00 TS 16.5075 -83.2850 main 125 125 P_____________ AL031904 16.5075 -83.2850 HU 67 1 6 316
1904272N12280 1904 37 NA CS NOT_NAMED 1904-10-01 06:00:00 TS 16.7000 -83.5000 70 hurdat_atl main 132 125 O_____________ hurdat_atl AL031904 16.7000 -83.5000 HU 70 1 6 309
1904272N12280 1904 37 NA CS NOT_NAMED 1904-10-01 09:00:00 TS 16.8575 -83.7351 main 138 130 P_____________ AL031904 16.8575 -83.7351 HU 70 1 6 302
1904272N12280 1904 37 NA CS NOT_NAMED 1904-10-01 12:00:00 TS 17.0000 -84.0000 70 hurdat_atl main 138 135 O_____________ hurdat_atl AL031904 17.0000 -84.0000 HU 70 1 6 299
1904272N12280 1904 37 NA CS NOT_NAMED 1904-10-01 15:00:00 TS 17.1500 -84.2925 main 140 140 P_____________ AL031904 17.1500 -84.2925 HU 70 1 6 298
1904272N12280 1904 37 NA CS NOT_NAMED 1904-10-01 18:00:00 TS 17.3000 -84.6000 70 hurdat_atl main 157 156 O_____________ hurdat_atl AL031904 17.3000 -84.6000 HU 70 1 7 298
1904272N12280 1904 37 NA CS NOT_NAMED 1904-10-01 21:00:00 TS 17.4575 -84.9000 main 179 179 P_____________ AL031904 17.4575 -84.9000 HU 67 1 6 298
1904272N12280 1904 37 NA CS NOT_NAMED 1904-10-02 00:00:00 TS 17.6000 -85.2000 65 hurdat_atl main 190 190 O_____________ hurdat_atl AL031904 17.6000 -85.2000 HU 65 1 6 294
1904272N12280 1904 37 NA CS NOT_NAMED 1904-10-02 03:00:00 TS 17.7074 -85.4926 main 201 201 P_____________ AL031904 17.7074 -85.4926 HU 62 0 6 289
1904272N12280 1904 37 NA CS NOT_NAMED 1904-10-02 06:00:00 TS 17.8000 -85.8000 60 hurdat_atl main 212 182 O_____________ hurdat_atl AL031904 17.8000 -85.8000 TS 60 0 7 288
1904272N12280 1904 37 NA CS NOT_NAMED 1904-10-02 09:00:00 TS 17.9075 -86.1425 main 182 139 P_____________ AL031904 17.9075 -86.1425 TS 57 0 7 287
1904272N12280 1904 37 NA CS NOT_NAMED 1904-10-02 12:00:00 TS 18.0000 -86.5000 55 hurdat_atl main 139 106 O_____________ hurdat_atl AL031904 18.0000 -86.5000 TS 55 0 7 282
1904272N12280 1904 37 NA CS NOT_NAMED 1904-10-02 15:00:00 TS 18.0575 -86.8576 main 95 64 P_____________ AL031904 18.0575 -86.8576 TS 52 0 7 279
1904272N12280 1904 37 NA CS NOT_NAMED 1904-10-02 18:00:00 TS 18.1000 -87.2000 50 hurdat_atl main 64 31 O_____________ hurdat_atl AL031904 18.1000 -87.2000 TS 50 0 6 280
1904272N12280 1904 37 NA CS NOT_NAMED 1904-10-02 21:00:00 TS 18.1649 -87.5074 main 31 0 P_____________ AL031904 18.1649 -87.5074 TS 50 0 6 280
1904272N12280 1904 37 NA CS NOT_NAMED 1904-10-03 00:00:00 TS 18.2000 -87.8000 50 hurdat_atl main 0 0 O_____________ hurdat_atl AL031904 18.2000 -87.8000 TS 50 0 6 270
1904272N12280 1904 37 NA CS NOT_NAMED 1904-10-03 03:00:00 TS 18.1650 -88.1001 main 0 0 P_____________ AL031904 18.1650 -88.1001 TS 45 0 6 260
1904272N12280 1904 37 NA NA NOT_NAMED 1904-10-03 06:00:00 TS 18.1000 -88.4000 40 hurdat_atl main 0 0 O_____________ hurdat_atl AL031904 18.1000 -88.4000 TS 40 0 6 258
1904272N12280 1904 37 NA NA NOT_NAMED 1904-10-03 09:00:00 TS 18.0499 -88.6925 main 0 0 P_____________ AL031904 18.0499 -88.6925 TS 37 0 6 260
1904272N12280 1904 37 NA NA NOT_NAMED 1904-10-03 12:00:00 TS 18.0000 -89.0000 35 hurdat_atl main 0 0 O_____________ hurdat_atl AL031904 18.0000 -89.0000 TS 35 0 6 261
1904272N12280 1904 37 NA NA NOT_NAMED 1904-10-03 15:00:00 TS 17.9575 -89.3424 main 0 0 P_____________ AL031904 17.9575 -89.3424 TS 35 0 7 261
1904272N12280 1904 37 NA NA NOT_NAMED 1904-10-03 18:00:00 TS 17.9000 -89.7000 35 hurdat_atl main 0 0 O_____________ hurdat_atl AL031904 17.9000 -89.7000 TS 35 0 7 258
1904272N12280 1904 37 NA NA NOT_NAMED 1904-10-03 21:00:00 TS 17.8149 -90.0424 main 0 0 P_____________ AL031904 17.8149 -90.0424 TS 32 -1 7 253
1904272N12280 1904 37 NA NA NOT_NAMED 1904-10-04 00:00:00 TS 17.7000 -90.4000 30 hurdat_atl main 0 0 O_____________ hurdat_atl AL031904 17.7000 -90.4000 TD 30 -1 8 251
1904272N12280 1904 37 NA NA NOT_NAMED 1904-10-04 03:00:00 TS 17.5650 -90.7925 main 0 0 P_____________ AL031904 17.5650 -90.7925 TD 30 -1 8 249
1904272N12280 1904 37 NA NA NOT_NAMED 1904-10-04 06:00:00 TS 17.4000 -91.2000 30 hurdat_atl main 0 0 O_____________ hurdat_atl AL031904 17.4000 -91.2000 TD 30 -1 8 246
1904272N12280 1904 37 NA NA NOT_NAMED 1904-10-04 09:00:00 TS 17.2149 -91.5999 main 0 0 P_____________ AL031904 17.2149 -91.5999 TD 27 -1 9 242
1904272N12280 1904 37 NA NA NOT_NAMED 1904-10-04 12:00:00 TS 17.0000 -92.0000 25 hurdat_atl main 0 0 O_____________ hurdat_atl AL031904 17.0000 -92.0000 TD 25 -1 9 239
1904272N12280 1904 37 NA NA NOT_NAMED 1904-10-04 15:00:00 TS 16.7577 -92.4002 main 0 0 P_____________ AL031904 16.7577 -92.4002 TD 25 -1 9 237
1904272N12280 1904 37 NA NA NOT_NAMED 1904-10-04 18:00:00 TS 16.5000 -92.8000 25 hurdat_atl main 0 O_____________ hurdat_atl AL031904 16.5000 -92.8000 TD 25 -1 9 236

About IBTrACS Database

This database is a web-friendly format of International Best Track Archive for Climate Stewardship (IBTrACS), a global best track data archive curated by NOAA dating back to 1842.

Updated: 2021-10-19